Terminal Aerodrome Forecast
Issued by NWS

Home | Current Version | Previous Version | Text Only | Print | Product List | Glossary On
Versions: 1 2 3 4 5 6 7 8 9 10 11 12 13 14 15 16 17 18 19 20 21 22 23 24 25 26 27 28
000
FTUS45 KBOI 182332
TAFBKE
TAF
KBKE 182332Z 1900/1924 11011KT P6SM SCT060 OVC080
     FM190600 12010KT 5SM -SHSNRA BR OVC040
     FM191200 12010KT 5SM -SNRA BR OVC025
     FM192300 30010KT P6SM VCSH OVC035=

USA.gov is the U.S. government's official web portal to all federal, state and local government web resources and services.